createdAt,value
2023-04-30T00:00:40.175Z,101011.59
2023-04-30T00:05:37.352Z,101007.88
2023-04-30T00:10:33.852Z,101017.00
2023-04-30T00:15:31.184Z,101020.28
2023-04-30T00:20:27.686Z,101020.13
2023-04-30T00:25:24.712Z,101038.94
2023-04-30T00:30:21.104Z,101033.44
2023-04-30T00:35:17.519Z,101036.47
2023-04-30T00:40:14.024Z,101047.31
2023-04-30T00:45:10.744Z,101047.72
2023-04-30T00:50:07.525Z,101052.25
2023-04-30T00:55:04.146Z,101062.31
2023-04-30T01:00:00.955Z,101062.75
2023-04-30T01:04:57.926Z,101076.44
2023-04-30T01:09:55.169Z,101080.16
2023-04-30T01:14:54.763Z,101089.16
2023-04-30T01:19:51.252Z,101078.44
2023-04-30T01:25:19.425Z,101087.56
2023-04-30T01:30:18.441Z,101091.97
2023-04-30T01:35:14.968Z,101093.38
2023-04-30T01:40:24.422Z,101082.00
2023-04-30T01:45:53.708Z,101075.47
2023-04-30T01:51:23.816Z,101074.47
2023-04-30T01:56:31.245Z,101075.75
2023-04-30T02:01:32.813Z,101081.19
2023-04-30T02:06:30.272Z,101085.16
2023-04-30T02:11:26.815Z,101093.34
2023-04-30T02:16:23.947Z,101090.91
2023-04-30T02:21:20.399Z,101095.81
2023-04-30T02:26:16.929Z,101110.09
2023-04-30T02:31:13.354Z,101102.00
2023-04-30T02:36:09.835Z,101103.44
2023-04-30T02:41:21.763Z,101100.53
2023-04-30T02:46:19.132Z,101105.13
2023-04-30T02:51:15.617Z,101105.25
2023-04-30T02:56:12.012Z,101105.03
2023-04-30T03:01:08.494Z,101105.03
2023-04-30T03:06:05.236Z,101115.84
2023-04-30T03:11:01.689Z,101123.06
2023-04-30T03:15:59.627Z,101125.50
2023-04-30T03:20:56.850Z,101128.19
2023-04-30T03:25:53.290Z,101126.91
2023-04-30T03:30:50.314Z,101132.03
2023-04-30T03:35:46.840Z,101125.34
2023-04-30T03:40:43.370Z,101132.56
2023-04-30T03:45:39.836Z,101137.53
2023-04-30T03:50:36.291Z,101134.19
2023-04-30T03:55:34.038Z,101122.75
2023-04-30T04:00:31.144Z,101127.97
2023-04-30T04:05:27.602Z,101115.88
2023-04-30T04:10:23.975Z,101121.63
2023-04-30T04:15:20.572Z,101123.38
2023-04-30T04:20:17.654Z,101117.94
2023-04-30T04:25:14.222Z,101120.72
2023-04-30T04:30:11.185Z,101120.44
2023-04-30T04:35:08.318Z,101127.09
2023-04-30T04:40:05.390Z,101129.94
2023-04-30T04:45:03.768Z,101144.94
2023-04-30T04:50:00.694Z,101139.31
2023-04-30T04:54:57.132Z,101136.13
2023-04-30T04:59:53.770Z,101141.34
2023-04-30T05:04:51.235Z,101149.63
2023-04-30T05:09:47.705Z,101148.81
2023-04-30T05:14:44.868Z,101141.47
2023-04-30T05:19:41.296Z,101151.53
2023-04-30T05:24:37.744Z,101146.69
2023-04-30T05:29:34.244Z,101149.44
2023-04-30T05:34:30.970Z,101164.53
2023-04-30T05:39:27.382Z,101170.22
2023-04-30T05:44:24.168Z,101172.00
2023-04-30T05:49:20.746Z,101164.88
2023-04-30T05:54:17.577Z,101152.81
2023-04-30T05:59:14.007Z,101147.75
2023-04-30T06:04:11.712Z,101146.88
2023-04-30T06:09:08.216Z,101145.88
2023-04-30T06:14:04.725Z,101149.28
2023-04-30T06:19:01.100Z,101156.75
2023-04-30T06:23:57.529Z,101149.53
2023-04-30T06:28:53.920Z,101159.97
2023-04-30T06:33:50.906Z,101162.66
2023-04-30T06:38:47.436Z,101159.31
2023-04-30T06:43:43.949Z,101160.63
2023-04-30T06:48:40.586Z,101164.53
2023-04-30T06:53:37.047Z,101171.44
2023-04-30T06:58:33.480Z,101160.25
2023-04-30T07:03:29.984Z,101164.97
2023-04-30T07:08:26.496Z,101174.06
2023-04-30T07:13:22.859Z,101164.31
2023-04-30T07:18:19.492Z,101164.97
2023-04-30T07:23:15.900Z,101159.44
2023-04-30T07:28:12.306Z,101168.34
2023-04-30T07:33:09.520Z,101157.03
2023-04-30T07:38:05.985Z,101167.88
2023-04-30T07:43:02.696Z,101176.44
2023-04-30T07:47:59.136Z,101163.94
2023-04-30T07:52:55.535Z,101161.50
2023-04-30T07:57:52.179Z,101167.00
2023-04-30T08:02:49.902Z,101169.25
2023-04-30T08:07:46.573Z,101171.59
2023-04-30T08:12:42.954Z,101177.09
2023-04-30T08:17:39.391Z,101182.59
2023-04-30T08:22:36.355Z,101176.75
2023-04-30T08:27:32.758Z,101169.94
2023-04-30T08:32:29.668Z,101164.75
2023-04-30T08:37:26.281Z,101164.84
2023-04-30T08:42:35.198Z,101158.16
2023-04-30T08:47:31.877Z,101161.84
2023-04-30T08:52:30.231Z,101154.25
2023-04-30T08:57:26.976Z,101150.31
2023-04-30T09:02:23.442Z,101148.34
2023-04-30T09:07:21.119Z,101150.53
2023-04-30T09:12:19.757Z,101158.63
2023-04-30T09:17:22.134Z,101161.34
2023-04-30T09:22:21.152Z,101151.88
2023-04-30T09:27:23.817Z,101146.09
2023-04-30T09:32:20.403Z,101147.38
2023-04-30T09:37:16.906Z,101142.00
2023-04-30T09:42:13.323Z,101146.09
2023-04-30T09:47:15.594Z,101151.78
2023-04-30T09:52:12.627Z,101139.84
2023-04-30T09:57:11.710Z,101138.88
2023-04-30T10:02:09.236Z,101128.81
2023-04-30T10:07:14.813Z,101127.88
2023-04-30T10:12:16.404Z,101120.59
2023-04-30T10:17:17.014Z,101120.56
2023-04-30T10:22:14.265Z,101127.72
2023-04-30T10:27:11.103Z,101121.94
2023-04-30T10:32:08.363Z,101106.81
2023-04-30T10:37:11.952Z,101101.59
2023-04-30T10:42:10.388Z,101105.81
2023-04-30T10:47:08.094Z,101101.16
2023-04-30T10:52:05.299Z,101079.09
2023-04-30T10:57:11.696Z,101081.16
2023-04-30T11:02:11.158Z,101074.47
2023-04-30T11:07:09.862Z,101078.63
2023-04-30T11:12:16.032Z,101067.78
2023-04-30T11:17:22.564Z,101046.88
2023-04-30T11:22:24.444Z,101059.03
2023-04-30T11:27:32.115Z,101056.38
2023-04-30T11:32:36.197Z,101046.19
2023-04-30T11:37:37.765Z,101050.16
2023-04-30T11:42:35.005Z,101043.88
2023-04-30T11:47:44.090Z,101046.47
2023-04-30T11:52:41.800Z,101032.47
2023-04-30T11:57:42.857Z,101033.75
2023-04-30T12:02:39.942Z,101018.03
2023-04-30T12:07:36.518Z,101017.03
2023-04-30T12:12:32.878Z,101016.38
2023-04-30T12:17:35.804Z,100997.81
2023-04-30T12:22:32.695Z,101010.09
2023-04-30T12:27:30.104Z,101004.03
2023-04-30T12:32:26.622Z,100996.97
2023-04-30T12:37:23.063Z,101001.78
2023-04-30T12:42:20.098Z,101000.88
2023-04-30T12:47:16.696Z,101005.72
2023-04-30T12:52:14.038Z,100988.50
2023-04-30T12:57:12.995Z,100981.53
2023-04-30T13:02:12.035Z,100980.72
2023-04-30T13:07:08.838Z,100966.00
2023-04-30T13:12:06.203Z,100952.03
2023-04-30T13:17:05.695Z,100949.19
2023-04-30T13:22:02.194Z,100949.78
2023-04-30T13:26:59.254Z,100947.69
2023-04-30T13:31:55.883Z,100946.50
2023-04-30T13:36:53.648Z,100944.03
2023-04-30T13:41:50.556Z,100941.81
2023-04-30T13:46:46.944Z,100926.41
2023-04-30T13:51:43.341Z,100925.97
2023-04-30T13:56:39.735Z,100917.91
2023-04-30T14:01:36.088Z,100922.81
2023-04-30T14:06:32.500Z,100914.03
2023-04-30T14:11:28.885Z,100918.19
2023-04-30T14:16:25.476Z,100922.72
2023-04-30T14:21:21.847Z,100904.25
2023-04-30T14:26:18.384Z,100912.13
2023-04-30T14:31:14.758Z,100902.50
2023-04-30T14:36:11.264Z,100900.94
2023-04-30T14:41:07.668Z,100899.69
2023-04-30T14:46:04.357Z,100883.91
2023-04-30T14:51:01.334Z,100882.44
2023-04-30T14:55:57.733Z,100879.63
2023-04-30T15:00:54.194Z,100871.06
2023-04-30T15:05:51.640Z,100874.63
2023-04-30T15:10:48.062Z,100878.50
2023-04-30T15:15:46.974Z,100868.69
2023-04-30T15:20:43.514Z,100867.72
2023-04-30T15:25:39.951Z,100856.13
2023-04-30T15:30:36.943Z,100845.56
2023-04-30T15:35:33.292Z,100846.97
2023-04-30T15:40:29.683Z,100851.50
2023-04-30T15:45:27.436Z,100838.22
2023-04-30T15:50:23.925Z,100847.31
2023-04-30T15:55:20.345Z,100837.38
2023-04-30T16:00:17.102Z,100841.69
2023-04-30T16:05:13.566Z,100831.28
2023-04-30T16:10:10.334Z,100822.69
2023-04-30T16:15:07.757Z,100817.81
2023-04-30T16:20:04.669Z,100812.59
2023-04-30T16:25:01.000Z,100809.50
2023-04-30T16:29:57.770Z,100804.56
2023-04-30T16:34:54.338Z,100805.44
2023-04-30T16:39:50.761Z,100797.66
2023-04-30T16:44:47.192Z,100787.19
2023-04-30T16:49:43.583Z,100775.72
2023-04-30T16:54:39.936Z,100761.75
2023-04-30T16:59:36.310Z,100764.63
2023-04-30T17:04:33.004Z,100751.97
2023-04-30T17:09:29.807Z,100757.91
2023-04-30T17:14:26.912Z,100747.06
2023-04-30T17:19:23.279Z,100747.34
2023-04-30T17:24:19.633Z,100745.84
2023-04-30T17:29:16.591Z,100748.34
2023-04-30T17:34:13.547Z,100747.28
2023-04-30T17:39:11.589Z,100750.56
2023-04-30T17:44:08.064Z,100758.13
2023-04-30T17:49:05.067Z,100757.56
2023-04-30T17:54:02.044Z,100753.19
2023-04-30T17:58:58.942Z,100748.66
2023-04-30T18:03:55.534Z,100750.84
2023-04-30T18:08:53.750Z,100749.81
2023-04-30T18:13:50.136Z,100748.31
2023-04-30T18:18:46.485Z,100755.63
2023-04-30T18:23:42.827Z,100751.41
2023-04-30T18:28:39.193Z,100748.38
2023-04-30T18:33:36.272Z,100754.06
2023-04-30T18:38:35.288Z,100750.28
2023-04-30T18:43:31.656Z,100753.91
2023-04-30T18:48:27.999Z,100754.78
2023-04-30T18:53:25.106Z,100755.50
2023-04-30T18:58:22.208Z,100754.47
2023-04-30T19:03:18.725Z,100754.97
2023-04-30T19:08:15.225Z,100761.88
2023-04-30T19:13:11.797Z,100763.78
2023-04-30T19:18:09.104Z,100762.22
2023-04-30T19:23:06.805Z,100771.91
2023-04-30T19:28:03.226Z,100775.03
2023-04-30T19:32:59.642Z,100773.81
2023-04-30T19:37:56.074Z,100775.91
2023-04-30T19:42:54.758Z,100775.63
2023-04-30T19:47:51.325Z,100777.53
2023-04-30T19:52:47.710Z,100773.56
2023-04-30T19:57:44.604Z,100771.59
2023-04-30T20:02:41.054Z,100775.38
2023-04-30T20:07:37.528Z,100773.03
2023-04-30T20:12:33.993Z,100767.72
2023-04-30T20:17:30.464Z,100760.53
2023-04-30T20:22:27.484Z,100757.59
2023-04-30T20:27:25.709Z,100759.31
2023-04-30T20:32:22.461Z,100751.22
2023-04-30T20:37:19.029Z,100751.63
2023-04-30T20:42:16.296Z,100745.81
2023-04-30T20:47:14.238Z,100739.34
2023-04-30T20:52:14.232Z,100734.56
2023-04-30T20:57:10.748Z,100737.44
2023-04-30T21:02:08.098Z,100730.41
2023-04-30T21:07:04.495Z,100732.22
2023-04-30T21:12:05.319Z,100723.41
2023-04-30T21:17:01.920Z,100727.25
2023-04-30T21:21:58.568Z,100721.06
2023-04-30T21:26:55.006Z,100720.00
2023-04-30T21:31:51.749Z,100721.78
2023-04-30T21:36:48.202Z,100708.47
2023-04-30T21:41:44.584Z,100711.78
2023-04-30T21:46:40.931Z,100713.84
2023-04-30T21:51:37.726Z,100710.63
2023-04-30T21:56:34.169Z,100707.31
2023-04-30T22:01:31.162Z,100701.72
2023-04-30T22:06:28.393Z,100707.25
2023-04-30T22:11:25.362Z,100693.78
2023-04-30T22:16:21.799Z,100700.47
2023-04-30T22:21:18.336Z,100694.84
2023-04-30T22:26:15.383Z,100685.97
2023-04-30T22:31:12.110Z,100681.25
2023-04-30T22:36:08.593Z,100676.59
2023-04-30T22:41:05.362Z,100674.44
2023-04-30T22:46:02.374Z,100669.44
2023-04-30T22:50:58.806Z,100664.72
2023-04-30T22:55:55.354Z,100657.22
2023-04-30T23:00:51.922Z,100654.38
2023-04-30T23:05:51.444Z,100655.50
2023-04-30T23:10:47.793Z,100650.22
2023-04-30T23:15:45.333Z,100648.69
2023-04-30T23:20:42.167Z,100647.84
2023-04-30T23:25:38.505Z,100645.78
2023-04-30T23:30:39.015Z,100639.63
2023-04-30T23:35:35.359Z,100635.53
2023-04-30T23:40:31.713Z,100641.22
2023-04-30T23:45:28.030Z,100642.78
2023-04-30T23:50:24.493Z,100631.63
2023-04-30T23:55:20.939Z,100634.34
